sensor_id;sensor_type;location;lat;lon;timestamp;pressure;altitude;pressure_sealevel;temperature;humidity
77867;BME280;67271;59.120;37.970;2023-06-14T00:02:45;100542.59;;;14.86;60.10
77867;BME280;67271;59.120;37.970;2023-06-14T00:05:12;100538.16;;;14.91;60.13
77867;BME280;67271;59.120;37.970;2023-06-14T00:07:41;100541.28;;;15.01;59.74
77867;BME280;67271;59.120;37.970;2023-06-14T00:10:11;100543.75;;;15.09;59.57
77867;BME280;67271;59.120;37.970;2023-06-14T00:12:38;100545.16;;;15.19;59.47
77867;BME280;67271;59.120;37.970;2023-06-14T00:15:05;100544.91;;;15.27;59.17
77867;BME280;67271;59.120;37.970;2023-06-14T00:17:31;100543.81;;;15.34;59.22
77867;BME280;67271;59.120;37.970;2023-06-14T00:19:58;100546.97;;;15.38;58.85
77867;BME280;67271;59.120;37.970;2023-06-14T00:22:24;100546.13;;;15.37;58.98
77867;BME280;67271;59.120;37.970;2023-06-14T00:24:51;100546.97;;;15.38;58.87
77867;BME280;67271;59.120;37.970;2023-06-14T00:27:17;100552.41;;;15.38;58.88
77867;BME280;67271;59.120;37.970;2023-06-14T00:29:43;100560.19;;;15.34;59.13
77867;BME280;67271;59.120;37.970;2023-06-14T00:32:09;100561.66;;;15.37;59.10
77867;BME280;67271;59.120;37.970;2023-06-14T00:34:35;100561.03;;;15.35;59.05
77867;BME280;67271;59.120;37.970;2023-06-14T00:37:01;100553.91;;;15.34;58.83
77867;BME280;67271;59.120;37.970;2023-06-14T00:39:27;100555.16;;;15.38;59.00
77867;BME280;67271;59.120;37.970;2023-06-14T00:41:54;100551.38;;;15.39;58.82
77867;BME280;67271;59.120;37.970;2023-06-14T00:44:20;100551.38;;;15.39;58.72
77867;BME280;67271;59.120;37.970;2023-06-14T00:46:47;100543.63;;;15.36;58.49
77867;BME280;67271;59.120;37.970;2023-06-14T00:49:14;100551.41;;;15.32;58.51
77867;BME280;67271;59.120;37.970;2023-06-14T00:51:42;100546.78;;;15.33;58.65
77867;BME280;67271;59.120;37.970;2023-06-14T00:54:09;100546.97;;;15.38;58.36
77867;BME280;67271;59.120;37.970;2023-06-14T00:56:36;100542.97;;;15.40;58.71
77867;BME280;67271;59.120;37.970;2023-06-14T00:59:03;100538.38;;;15.41;58.43
77867;BME280;67271;59.120;37.970;2023-06-14T01:01:30;100545.03;;;15.45;58.60
77867;BME280;67271;59.120;37.970;2023-06-14T01:04:00;100547.72;;;15.52;57.80
77867;BME280;67271;59.120;37.970;2023-06-14T01:09:06;100532.84;;;15.54;57.50
77867;BME280;67271;59.120;37.970;2023-06-14T01:14:31;100526.38;;;15.42;57.46
77867;BME280;67271;59.120;37.970;2023-06-14T01:16:59;100532.69;;;15.36;57.07
77867;BME280;67271;59.120;37.970;2023-06-14T01:19:26;100524.56;;;15.29;56.83
77867;BME280;67271;59.120;37.970;2023-06-14T01:21:55;100533.16;;;15.26;56.91
77867;BME280;67271;59.120;37.970;2023-06-14T01:24:21;100535.72;;;15.21;56.83
77867;BME280;67271;59.120;37.970;2023-06-14T01:26:53;100529.63;;;15.19;56.41
77867;BME280;67271;59.120;37.970;2023-06-14T01:29:25;100523.81;;;15.16;56.54
77867;BME280;67271;59.120;37.970;2023-06-14T01:31:54;100528.19;;;15.17;56.65
77867;BME280;67271;59.120;37.970;2023-06-14T01:34:20;100527.16;;;15.18;56.10
77867;BME280;67271;59.120;37.970;2023-06-14T01:36:52;100526.69;;;15.21;55.92
77867;BME280;67271;59.120;37.970;2023-06-14T01:39:21;100528.56;;;15.27;55.69
77867;BME280;67271;59.120;37.970;2023-06-14T01:41:49;100517.63;;;15.33;55.68
77867;BME280;67271;59.120;37.970;2023-06-14T01:44:17;100530.19;;;15.41;55.63
77867;BME280;67271;59.120;37.970;2023-06-14T01:46:44;100522.38;;;15.44;55.32
77867;BME280;67271;59.120;37.970;2023-06-14T01:49:11;100531.34;;;15.58;54.84
77867;BME280;67271;59.120;37.970;2023-06-14T01:51:37;100518.91;;;15.69;54.49
77867;BME280;67271;59.120;37.970;2023-06-14T01:54:03;100522.63;;;15.74;54.36
77867;BME280;67271;59.120;37.970;2023-06-14T01:56:30;100521.38;;;15.77;54.36
77867;BME280;67271;59.120;37.970;2023-06-14T01:58:58;100518.97;;;15.87;54.26
77867;BME280;67271;59.120;37.970;2023-06-14T02:01:24;100518.63;;;16.02;53.64
77867;BME280;67271;59.120;37.970;2023-06-14T02:03:51;100520.22;;;16.16;53.33
77867;BME280;67271;59.120;37.970;2023-06-14T02:06:17;100516.28;;;16.30;53.20
77867;BME280;67271;59.120;37.970;2023-06-14T02:08:43;100519.59;;;16.32;53.12
77867;BME280;67271;59.120;37.970;2023-06-14T02:11:08;100524.19;;;16.38;53.05
77867;BME280;67271;59.120;37.970;2023-06-14T02:13:34;100523.50;;;16.43;52.75
77867;BME280;67271;59.120;37.970;2023-06-14T02:16:01;100523.00;;;16.52;52.98
77867;BME280;67271;59.120;37.970;2023-06-14T02:18:28;100518.78;;;17.23;51.22
77867;BME280;67271;59.120;37.970;2023-06-14T02:20:55;100520.56;;;17.17;51.21
77867;BME280;67271;59.120;37.970;2023-06-14T02:23:21;100512.53;;;17.04;51.61
77867;BME280;67271;59.120;37.970;2023-06-14T02:25:47;100511.19;;;16.95;51.76
77867;BME280;67271;59.120;37.970;2023-06-14T02:28:13;100518.09;;;16.97;51.96
77867;BME280;67271;59.120;37.970;2023-06-14T02:30:39;100508.84;;;16.98;51.77
77867;BME280;67271;59.120;37.970;2023-06-14T02:33:06;100509.34;;;17.67;50.85
77867;BME280;67271;59.120;37.970;2023-06-14T02:35:32;100501.00;;;20.75;45.26
77867;BME280;67271;59.120;37.970;2023-06-14T02:37:58;100511.72;;;23.22;41.61
77867;BME280;67271;59.120;37.970;2023-06-14T02:40:24;100513.25;;;22.51;42.70
77867;BME280;67271;59.120;37.970;2023-06-14T02:42:50;100523.38;;;20.84;45.96
77867;BME280;67271;59.120;37.970;2023-06-14T02:45:17;100519.72;;;20.57;46.69
77867;BME280;67271;59.120;37.970;2023-06-14T02:47:43;100512.09;;;22.84;42.82
77867;BME280;67271;59.120;37.970;2023-06-14T02:50:11;100510.56;;;23.08;42.04
77867;BME280;67271;59.120;37.970;2023-06-14T02:52:37;100514.63;;;22.95;42.44
77867;BME280;67271;59.120;37.970;2023-06-14T02:55:04;100524.00;;;21.83;44.39
77867;BME280;67271;59.120;37.970;2023-06-14T02:57:30;100518.22;;;23.73;41.44
77867;BME280;67271;59.120;37.970;2023-06-14T02:59:56;100525.16;;;25.36;38.99
77867;BME280;67271;59.120;37.970;2023-06-14T03:02:24;100524.63;;;26.46;37.54
77867;BME280;67271;59.120;37.970;2023-06-14T03:04:50;100524.63;;;27.65;36.03
77867;BME280;67271;59.120;37.970;2023-06-14T03:07:19;100525.00;;;27.96;35.65
77867;BME280;67271;59.120;37.970;2023-06-14T03:09:48;100535.25;;;26.39;37.39
77867;BME280;67271;59.120;37.970;2023-06-14T03:12:17;100529.34;;;25.29;39.05
77867;BME280;67271;59.120;37.970;2023-06-14T03:14:43;100535.59;;;23.69;40.99
77867;BME280;67271;59.120;37.970;2023-06-14T03:17:11;100545.25;;;22.52;42.79
77867;BME280;67271;59.120;37.970;2023-06-14T03:19:39;100542.50;;;21.61;44.20
77867;BME280;67271;59.120;37.970;2023-06-14T03:22:07;100542.56;;;21.17;45.14
77867;BME280;67271;59.120;37.970;2023-06-14T03:24:33;100538.50;;;21.03;45.11
77867;BME280;67271;59.120;37.970;2023-06-14T03:27:05;100542.78;;;20.72;45.47
77867;BME280;67271;59.120;37.970;2023-06-14T03:29:31;100544.84;;;20.43;45.99
77867;BME280;67271;59.120;37.970;2023-06-14T03:32:00;100538.06;;;21.11;44.91
77867;BME280;67271;59.120;37.970;2023-06-14T03:34:33;100541.09;;;21.32;44.48
77867;BME280;67271;59.120;37.970;2023-06-14T03:36:59;100540.56;;;21.88;43.31
77867;BME280;67271;59.120;37.970;2023-06-14T03:39:25;100537.06;;;21.66;43.83
77867;BME280;67271;59.120;37.970;2023-06-14T03:41:51;100523.53;;;24.20;40.08
77867;BME280;67271;59.120;37.970;2023-06-14T03:44:18;100532.06;;;24.39;39.65
77867;BME280;67271;59.120;37.970;2023-06-14T03:46:46;100527.38;;;24.04;40.62
77867;BME280;67271;59.120;37.970;2023-06-14T03:49:12;100528.47;;;24.18;40.24
77867;BME280;67271;59.120;37.970;2023-06-14T03:51:39;100525.72;;;24.28;40.45
77867;BME280;67271;59.120;37.970;2023-06-14T03:54:05;100526.00;;;25.86;38.50
77867;BME280;67271;59.120;37.970;2023-06-14T03:56:32;100517.47;;;27.59;36.26
77867;BME280;67271;59.120;37.970;2023-06-14T03:58:59;100512.91;;;28.20;35.32
77867;BME280;67271;59.120;37.970;2023-06-14T04:01:27;100519.34;;;28.80;34.90
77867;BME280;67271;59.120;37.970;2023-06-14T04:03:58;100522.16;;;29.71;33.89
77867;BME280;67271;59.120;37.970;2023-06-14T04:06:25;100523.00;;;30.38;33.08
77867;BME280;67271;59.120;37.970;2023-06-14T04:08:58;100519.47;;;31.17;32.43
77867;BME280;67271;59.120;37.970;2023-06-14T04:11:27;100527.13;;;31.59;32.35
77867;BME280;67271;59.120;37.970;2023-06-14T04:13:53;100533.41;;;31.73;31.68
77867;BME280;67271;59.120;37.970;2023-06-14T04:16:22;100521.41;;;31.90;31.77
77867;BME280;67271;59.120;37.970;2023-06-14T04:18:48;100518.91;;;32.06;31.30
77867;BME280;67271;59.120;37.970;2023-06-14T04:21:18;100511.47;;;32.44;30.76
77867;BME280;67271;59.120;37.970;2023-06-14T04:23:45;100508.25;;;32.72;30.67
77867;BME280;67271;59.120;37.970;2023-06-14T04:26:13;100503.88;;;33.00;30.28
77867;BME280;67271;59.120;37.970;2023-06-14T04:28:40;100509.41;;;33.09;30.11
77867;BME280;67271;59.120;37.970;2023-06-14T04:31:08;100503.75;;;32.88;30.40
77867;BME280;67271;59.120;37.970;2023-06-14T04:33:37;100504.72;;;32.92;30.21
77867;BME280;67271;59.120;37.970;2023-06-14T04:36:13;100503.66;;;33.05;30.00
77867;BME280;67271;59.120;37.970;2023-06-14T04:38:39;100505.19;;;32.94;30.15
77867;BME280;67271;59.120;37.970;2023-06-14T04:41:08;100504.31;;;32.64;30.28
77867;BME280;67271;59.120;37.970;2023-06-14T04:43:38;100502.03;;;32.57;30.27
77867;BME280;67271;59.120;37.970;2023-06-14T04:46:06;100495.63;;;32.48;30.38
77867;BME280;67271;59.120;37.970;2023-06-14T04:48:37;100503.53;;;32.55;30.48
77867;BME280;67271;59.120;37.970;2023-06-14T04:51:07;100500.88;;;32.58;30.06
77867;BME280;67271;59.120;37.970;2023-06-14T04:53:33;100508.66;;;32.44;30.38
77867;BME280;67271;59.120;37.970;2023-06-14T04:56:00;100507.22;;;32.12;30.73
77867;BME280;67271;59.120;37.970;2023-06-14T04:58:27;100511.16;;;32.37;30.25
77867;BME280;67271;59.120;37.970;2023-06-14T05:00:55;100512.81;;;32.29;30.25
77867;BME280;67271;59.120;37.970;2023-06-14T05:03:22;100513.84;;;32.80;29.71
77867;BME280;67271;59.120;37.970;2023-06-14T05:05:50;100513.19;;;32.83;29.51
77867;BME280;67271;59.120;37.970;2023-06-14T05:08:16;100520.66;;;32.62;29.52
77867;BME280;67271;59.120;37.970;2023-06-14T05:10:43;100512.63;;;32.43;29.84
77867;BME280;67271;59.120;37.970;2023-06-14T05:13:09;100514.16;;;32.32;29.85
77867;BME280;67271;59.120;37.970;2023-06-14T05:15:36;100509.06;;;32.81;29.43
77867;BME280;67271;59.120;37.970;2023-06-14T05:18:02;100513.31;;;32.87;29.38
77867;BME280;67271;59.120;37.970;2023-06-14T05:20:28;100512.91;;;33.05;29.29
77867;BME280;67271;59.120;37.970;2023-06-14T05:22:55;100510.81;;;33.53;29.02
77867;BME280;67271;59.120;37.970;2023-06-14T05:25:24;100512.63;;;33.78;29.23
77867;BME280;67271;59.120;37.970;2023-06-14T05:27:50;100507.38;;;34.09;28.41
77867;BME280;67271;59.120;37.970;2023-06-14T05:30:16;100513.94;;;34.13;28.46
77867;BME280;67271;59.120;37.970;2023-06-14T05:32:44;100504.22;;;34.11;28.80
77867;BME280;67271;59.120;37.970;2023-06-14T05:35:10;100507.34;;;34.30;28.42
77867;BME280;67271;59.120;37.970;2023-06-14T05:37:36;100512.84;;;34.27;28.34
77867;BME280;67271;59.120;37.970;2023-06-14T05:40:03;100505.84;;;34.33;28.18
77867;BME280;67271;59.120;37.970;2023-06-14T05:42:33;100506.50;;;34.50;28.25
77867;BME280;67271;59.120;37.970;2023-06-14T05:44:59;100510.00;;;34.60;27.78
77867;BME280;67271;59.120;37.970;2023-06-14T05:47:25;100507.56;;;34.58;27.62
77867;BME280;67271;59.120;37.970;2023-06-14T05:49:53;100517.44;;;34.43;27.84
77867;BME280;67271;59.120;37.970;2023-06-14T05:52:20;100511.56;;;34.81;27.46
77867;BME280;67271;59.120;37.970;2023-06-14T05:54:46;100506.78;;;35.06;26.97
77867;BME280;67271;59.120;37.970;2023-06-14T05:57:12;100517.09;;;35.02;27.07
77867;BME280;67271;59.120;37.970;2023-06-14T05:59:38;100513.00;;;35.00;27.24
77867;BME280;67271;59.120;37.970;2023-06-14T06:02:04;100509.72;;;35.22;27.16
77867;BME280;67271;59.120;37.970;2023-06-14T06:04:30;100517.59;;;35.41;27.04
77867;BME280;67271;59.120;37.970;2023-06-14T06:06:56;100515.00;;;35.36;26.78
77867;BME280;67271;59.120;37.970;2023-06-14T06:09:22;100512.53;;;35.10;27.11
77867;BME280;67271;59.120;37.970;2023-06-14T06:11:48;100518.38;;;34.80;26.88
77867;BME280;67271;59.120;37.970;2023-06-14T06:14:14;100519.66;;;34.26;27.24
77867;BME280;67271;59.120;37.970;2023-06-14T06:16:40;100525.66;;;34.15;27.33
77867;BME280;67271;59.120;37.970;2023-06-14T06:19:07;100524.56;;;33.75;27.56
77867;BME280;67271;59.120;37.970;2023-06-14T06:21:33;100520.78;;;33.62;27.72
77867;BME280;67271;59.120;37.970;2023-06-14T06:23:59;100516.97;;;33.67;27.58
77867;BME280;67271;59.120;37.970;2023-06-14T06:26:29;100518.03;;;33.83;27.43
77867;BME280;67271;59.120;37.970;2023-06-14T06:28:55;100521.31;;;33.85;26.92
77867;BME280;67271;59.120;37.970;2023-06-14T06:31:22;100506.31;;;33.81;26.40
77867;BME280;67271;59.120;37.970;2023-06-14T06:33:49;100516.28;;;33.70;27.01
77867;BME280;67271;59.120;37.970;2023-06-14T06:36:16;100518.88;;;33.54;26.84
77867;BME280;67271;59.120;37.970;2023-06-14T06:38:42;100513.44;;;32.99;26.65
77867;BME280;67271;59.120;37.970;2023-06-14T06:41:08;100518.63;;;33.09;26.64
77867;BME280;67271;59.120;37.970;2023-06-14T06:43:34;100517.78;;;33.17;26.48
77867;BME280;67271;59.120;37.970;2023-06-14T06:46:01;100518.09;;;33.16;27.00
77867;BME280;67271;59.120;37.970;2023-06-14T06:48:27;100525.47;;;32.44;27.86
77867;BME280;67271;59.120;37.970;2023-06-14T06:50:54;100525.03;;;31.65;28.46
77867;BME280;67271;59.120;37.970;2023-06-14T06:53:20;100522.34;;;31.42;28.79
77867;BME280;67271;59.120;37.970;2023-06-14T06:55:46;100525.13;;;31.51;28.77
77867;BME280;67271;59.120;37.970;2023-06-14T06:58:13;100516.97;;;31.63;28.80
77867;BME280;67271;59.120;37.970;2023-06-14T07:00:39;100517.28;;;31.70;28.77
77867;BME280;67271;59.120;37.970;2023-06-14T07:03:06;100516.78;;;31.68;29.38
77867;BME280;67271;59.120;37.970;2023-06-14T07:05:32;100515.31;;;31.62;29.33
77867;BME280;67271;59.120;37.970;2023-06-14T07:07:58;100520.50;;;31.38;29.29
77867;BME280;67271;59.120;37.970;2023-06-14T07:10:24;100516.72;;;31.34;29.05
77867;BME280;67271;59.120;37.970;2023-06-14T07:12:51;100515.47;;;31.66;29.32
77867;BME280;67271;59.120;37.970;2023-06-14T07:15:17;100521.72;;;31.63;29.64
77867;BME280;67271;59.120;37.970;2023-06-14T07:17:43;100514.28;;;31.41;30.31
77867;BME280;67271;59.120;37.970;2023-06-14T07:20:09;100519.88;;;31.58;30.23
77867;BME280;67271;59.120;37.970;2023-06-14T07:22:41;100512.31;;;31.50;29.52
77867;BME280;67271;59.120;37.970;2023-06-14T07:25:12;100519.19;;;31.27;29.50
77867;BME280;67271;59.120;37.970;2023-06-14T07:27:41;100519.22;;;30.96;29.21
77867;BME280;67271;59.120;37.970;2023-06-14T07:30:08;100524.34;;;31.02;28.97
77867;BME280;67271;59.120;37.970;2023-06-14T07:32:34;100519.53;;;31.34;28.04
77867;BME280;67271;59.120;37.970;2023-06-14T07:35:00;100523.97;;;31.43;27.61
77867;BME280;67271;59.120;37.970;2023-06-14T07:37:26;100525.38;;;31.06;27.99
77867;BME280;67271;59.120;37.970;2023-06-14T07:39:52;100524.06;;;30.73;27.34
77867;BME280;67271;59.120;37.970;2023-06-14T07:42:17;100518.97;;;30.44;27.91
77867;BME280;67271;59.120;37.970;2023-06-14T07:44:43;100514.25;;;30.31;27.47
77867;BME280;67271;59.120;37.970;2023-06-14T07:47:09;100521.69;;;30.35;27.67
77867;BME280;67271;59.120;37.970;2023-06-14T07:49:35;100524.53;;;30.66;27.54
77867;BME280;67271;59.120;37.970;2023-06-14T07:52:01;100524.28;;;30.85;27.50
77867;BME280;67271;59.120;37.970;2023-06-14T07:54:27;100523.56;;;30.71;27.46
77867;BME280;67271;59.120;37.970;2023-06-14T07:56:54;100524.53;;;30.66;27.26
77867;BME280;67271;59.120;37.970;2023-06-14T07:59:20;100522.06;;;30.65;27.63
77867;BME280;67271;59.120;37.970;2023-06-14T08:01:46;100517.72;;;30.50;26.92
77867;BME280;67271;59.120;37.970;2023-06-14T08:04:14;100518.22;;;30.52;27.16
77867;BME280;67271;59.120;37.970;2023-06-14T08:06:41;100528.56;;;30.29;27.08
77867;BME280;67271;59.120;37.970;2023-06-14T08:09:10;100518.59;;;29.56;27.41
77867;BME280;67271;59.120;37.970;2023-06-14T08:11:37;100518.75;;;29.24;27.52
77867;BME280;67271;59.120;37.970;2023-06-14T08:14:03;100517.19;;;28.91;27.81
77867;BME280;67271;59.120;37.970;2023-06-14T08:16:28;100518.06;;;28.72;28.02
77867;BME280;67271;59.120;37.970;2023-06-14T08:18:55;100521.97;;;28.44;28.27
77867;BME280;67271;59.120;37.970;2023-06-14T08:21:21;100527.38;;;28.22;28.45
77867;BME280;67271;59.120;37.970;2023-06-14T08:23:47;100527.47;;;28.17;28.55
77867;BME280;67271;59.120;37.970;2023-06-14T08:26:13;100520.28;;;28.29;28.49
77867;BME280;67271;59.120;37.970;2023-06-14T08:28:39;100518.38;;;27.92;28.35
77867;BME280;67271;59.120;37.970;2023-06-14T08:31:05;100526.13;;;27.58;28.88
77867;BME280;67271;59.120;37.970;2023-06-14T08:33:31;100516.78;;;27.49;29.03
77867;BME280;67271;59.120;37.970;2023-06-14T08:36:00;100523.69;;;27.51;29.28
77867;BME280;67271;59.120;37.970;2023-06-14T08:38:26;100515.22;;;27.61;29.12
77867;BME280;67271;59.120;37.970;2023-06-14T08:40:52;100509.28;;;27.68;29.16
77867;BME280;67271;59.120;37.970;2023-06-14T08:43:26;100504.41;;;27.79;29.32
77867;BME280;67271;59.120;37.970;2023-06-14T08:45:58;100512.50;;;27.75;29.11
77867;BME280;67271;59.120;37.970;2023-06-14T08:48:26;100507.19;;;27.60;29.06
77867;BME280;67271;59.120;37.970;2023-06-14T08:50:55;100504.44;;;27.36;28.98
77867;BME280;67271;59.120;37.970;2023-06-14T08:53:35;100510.09;;;27.07;29.24
77867;BME280;67271;59.120;37.970;2023-06-14T08:56:08;100500.63;;;27.08;29.28
77867;BME280;67271;59.120;37.970;2023-06-14T08:58:48;100501.34;;;27.38;29.18
77867;BME280;67271;59.120;37.970;2023-06-14T09:01:23;100499.84;;;27.26;29.50
77867;BME280;67271;59.120;37.970;2023-06-14T09:03:50;100496.53;;;27.24;29.80
77867;BME280;67271;59.120;37.970;2023-06-14T09:06:16;100497.81;;;27.13;29.68
77867;BME280;67271;59.120;37.970;2023-06-14T09:08:47;100496.63;;;27.38;29.17
77867;BME280;67271;59.120;37.970;2023-06-14T09:11:15;100493.41;;;27.50;28.99
77867;BME280;67271;59.120;37.970;2023-06-14T09:13:42;100498.53;;;27.43;28.92
77867;BME280;67271;59.120;37.970;2023-06-14T09:16:08;100496.38;;;26.68;29.45
77867;BME280;67271;59.120;37.970;2023-06-14T09:18:39;100491.56;;;26.21;30.04
77867;BME280;67271;59.120;37.970;2023-06-14T09:21:07;100498.28;;;26.15;30.43
77867;BME280;67271;59.120;37.970;2023-06-14T09:23:37;100500.34;;;26.33;30.12
77867;BME280;67271;59.120;37.970;2023-06-14T09:26:14;100493.78;;;26.53;29.99
77867;BME280;67271;59.120;37.970;2023-06-14T09:28:44;100485.22;;;26.73;29.69
77867;BME280;67271;59.120;37.970;2023-06-14T09:31:15;100485.31;;;26.87;29.63
77867;BME280;67271;59.120;37.970;2023-06-14T09:33:42;100474.22;;;26.87;29.65
77867;BME280;67271;59.120;37.970;2023-06-14T09:36:18;100474.63;;;26.51;30.10
77867;BME280;67271;59.120;37.970;2023-06-14T09:38:55;100482.63;;;26.24;30.80
77867;BME280;67271;59.120;37.970;2023-06-14T09:41:33;100483.94;;;26.37;30.37
77867;BME280;67271;59.120;37.970;2023-06-14T09:44:00;100469.66;;;26.48;30.35
77867;BME280;67271;59.120;37.970;2023-06-14T09:46:28;100477.66;;;26.79;30.01
77867;BME280;67271;59.120;37.970;2023-06-14T09:49:00;100475.00;;;26.92;29.99
77867;BME280;67271;59.120;37.970;2023-06-14T09:51:28;100463.09;;;26.87;30.18
77867;BME280;67271;59.120;37.970;2023-06-14T09:54:01;100465.34;;;26.90;30.20
77867;BME280;67271;59.120;37.970;2023-06-14T09:56:35;100468.66;;;26.87;30.28
77867;BME280;67271;59.120;37.970;2023-06-14T09:59:04;100472.59;;;26.33;30.62
77867;BME280;67271;59.120;37.970;2023-06-14T10:01:31;100471.63;;;25.85;31.32
77867;BME280;67271;59.120;37.970;2023-06-14T10:04:04;100466.88;;;25.91;31.22
77867;BME280;67271;59.120;37.970;2023-06-14T10:06:36;100471.19;;;26.36;30.58
77867;BME280;67271;59.120;37.970;2023-06-14T10:09:04;100462.09;;;26.30;30.86
77867;BME280;67271;59.120;37.970;2023-06-14T10:11:31;100465.47;;;26.22;30.89
77867;BME280;67271;59.120;37.970;2023-06-14T10:13:58;100457.63;;;26.00;31.03
77867;BME280;67271;59.120;37.970;2023-06-14T10:16:52;100459.84;;;25.64;31.48
77867;BME280;67271;59.120;37.970;2023-06-14T10:19:27;100460.44;;;25.56;31.76
77867;BME280;67271;59.120;37.970;2023-06-14T10:22:08;100456.88;;;25.90;31.30
77867;BME280;67271;59.120;37.970;2023-06-14T10:24:42;100453.25;;;26.23;31.05
77867;BME280;67271;59.120;37.970;2023-06-14T10:27:13;100440.25;;;26.47;30.58
77867;BME280;67271;59.120;37.970;2023-06-14T10:32:26;100451.19;;;26.39;30.43
77867;BME280;67271;59.120;37.970;2023-06-14T10:34:56;100439.19;;;26.43;30.69
77867;BME280;67271;59.120;37.970;2023-06-14T10:37:23;100441.56;;;26.31;30.75
77867;BME280;67271;59.120;37.970;2023-06-14T10:39:52;100448.34;;;26.15;30.70
77867;BME280;67271;59.120;37.970;2023-06-14T10:42:21;100443.63;;;26.15;31.07
77867;BME280;67271;59.120;37.970;2023-06-14T10:44:54;100444.69;;;25.91;31.21
77867;BME280;67271;59.120;37.970;2023-06-14T10:47:33;100445.44;;;25.67;31.53
77867;BME280;67271;59.120;37.970;2023-06-14T10:50:10;100441.97;;;25.47;31.41
77867;BME280;67271;59.120;37.970;2023-06-14T10:52:42;100434.75;;;25.45;31.18
77867;BME280;67271;59.120;37.970;2023-06-14T10:55:16;100431.38;;;25.54;30.88
77867;BME280;67271;59.120;37.970;2023-06-14T10:57:50;100441.63;;;25.53;30.86
77867;BME280;67271;59.120;37.970;2023-06-14T11:00:19;100435.66;;;25.36;31.21
77867;BME280;67271;59.120;37.970;2023-06-14T11:05:28;100429.31;;;25.30;31.68
77867;BME280;67271;59.120;37.970;2023-06-14T11:10:39;100431.19;;;25.40;31.40
77867;BME280;67271;59.120;37.970;2023-06-14T11:13:08;100424.22;;;25.42;31.56
77867;BME280;67271;59.120;37.970;2023-06-14T11:15:38;100424.41;;;25.61;31.33
77867;BME280;67271;59.120;37.970;2023-06-14T11:18:08;100426.66;;;25.88;31.24
77867;BME280;67271;59.120;37.970;2023-06-14T11:20:36;100424.09;;;25.97;31.11
77867;BME280;67271;59.120;37.970;2023-06-14T11:23:03;100410.91;;;26.12;31.16
77867;BME280;67271;59.120;37.970;2023-06-14T11:25:30;100419.88;;;26.33;30.46
77867;BME280;67271;59.120;37.970;2023-06-14T11:27:57;100411.34;;;26.53;30.32
77867;BME280;67271;59.120;37.970;2023-06-14T11:30:24;100404.09;;;26.76;30.36
77867;BME280;67271;59.120;37.970;2023-06-14T11:32:52;100407.84;;;26.85;30.26
77867;BME280;67271;59.120;37.970;2023-06-14T11:35:20;100407.94;;;26.80;30.02
77867;BME280;67271;59.120;37.970;2023-06-14T11:37:52;100398.19;;;26.83;30.22
77867;BME280;67271;59.120;37.970;2023-06-14T11:40:18;100410.47;;;26.77;30.52
77867;BME280;67271;59.120;37.970;2023-06-14T11:42:44;100401.16;;;26.68;30.54
77867;BME280;67271;59.120;37.970;2023-06-14T11:45:11;100404.91;;;26.77;30.42
77867;BME280;67271;59.120;37.970;2023-06-14T11:47:39;100405.53;;;26.50;30.87
77867;BME280;67271;59.120;37.970;2023-06-14T11:50:07;100403.88;;;26.25;31.04
77867;BME280;67271;59.120;37.970;2023-06-14T11:52:34;100406.53;;;26.35;30.93
77867;BME280;67271;59.120;37.970;2023-06-14T11:55:01;100402.00;;;26.44;31.16
77867;BME280;67271;59.120;37.970;2023-06-14T11:57:30;100397.09;;;26.60;30.80
77867;BME280;67271;59.120;37.970;2023-06-14T11:59:56;100395.72;;;26.57;30.72
77867;BME280;67271;59.120;37.970;2023-06-14T12:02:22;100400.97;;;26.59;30.50
77867;BME280;67271;59.120;37.970;2023-06-14T12:04:49;100390.63;;;26.65;30.44
77867;BME280;67271;59.120;37.970;2023-06-14T12:07:16;100392.94;;;26.57;30.66
77867;BME280;67271;59.120;37.970;2023-06-14T12:10:03;100392.59;;;26.40;30.87
77867;BME280;67271;59.120;37.970;2023-06-14T12:12:35;100395.63;;;26.15;31.23
77867;BME280;67271;59.120;37.970;2023-06-14T12:15:04;100386.72;;;26.18;30.88
77867;BME280;67271;59.120;37.970;2023-06-14T12:17:35;100388.00;;;26.31;31.14
77867;BME280;67271;59.120;37.970;2023-06-14T12:22:59;100384.25;;;26.64;30.77
77867;BME280;67271;59.120;37.970;2023-06-14T12:25:37;100390.56;;;26.70;30.65
77867;BME280;67271;59.120;37.970;2023-06-14T12:28:07;100388.09;;;26.68;30.49
77867;BME280;67271;59.120;37.970;2023-06-14T12:30:39;100379.44;;;26.27;30.85
77867;BME280;67271;59.120;37.970;2023-06-14T12:33:06;100383.72;;;25.86;31.54
77867;BME280;67271;59.120;37.970;2023-06-14T12:35:33;100387.25;;;25.57;31.76
77867;BME280;67271;59.120;37.970;2023-06-14T12:38:00;100386.31;;;25.38;31.73
77867;BME280;67271;59.120;37.970;2023-06-14T12:40:26;100384.38;;;25.38;31.62
77867;BME280;67271;59.120;37.970;2023-06-14T12:43:09;100374.13;;;25.39;31.60
77867;BME280;67271;59.120;37.970;2023-06-14T12:45:35;100379.41;;;25.35;31.35
77867;BME280;67271;59.120;37.970;2023-06-14T12:48:04;100370.38;;;25.20;31.59
77867;BME280;67271;59.120;37.970;2023-06-14T12:50:30;100370.47;;;25.10;31.40
77867;BME280;67271;59.120;37.970;2023-06-14T12:52:56;100369.97;;;24.97;31.62
77867;BME280;67271;59.120;37.970;2023-06-14T12:55:22;100370.84;;;24.93;31.91
77867;BME280;67271;59.120;37.970;2023-06-14T12:57:48;100366.97;;;24.94;31.72
77867;BME280;67271;59.120;37.970;2023-06-14T13:00:15;100370.53;;;24.89;32.02
77867;BME280;67271;59.120;37.970;2023-06-14T13:02:43;100365.91;;;24.80;31.93